sensor_id;sensor_type;location;lat;lon;timestamp;P1;durP1;ratioP1;P2;durP2;ratioP2
22129;SDS011;11231;50.746;4.272;2024-03-02T00:00:06;3.33;;;0.60;;
22129;SDS011;11231;50.746;4.272;2024-03-02T00:02:42;2.87;;;0.67;;
22129;SDS011;11231;50.746;4.272;2024-03-02T00:05:13;1.80;;;0.70;;
22129;SDS011;11231;50.746;4.272;2024-03-02T00:07:44;1.80;;;0.70;;
22129;SDS011;11231;50.746;4.272;2024-03-02T00:10:11;0.60;;;0.40;;
22129;SDS011;11231;50.746;4.272;2024-03-02T00:12:44;1.47;;;0.70;;
22129;SDS011;11231;50.746;4.272;2024-03-02T00:18:06;1.93;;;0.60;;
22129;SDS011;11231;50.746;4.272;2024-03-02T00:20:33;1.47;;;0.40;;
22129;SDS011;11231;50.746;4.272;2024-03-02T00:23:05;1.17;;;0.60;;
22129;SDS011;11231;50.746;4.272;2024-03-02T00:28:19;2.50;;;0.50;;
22129;SDS011;11231;50.746;4.272;2024-03-02T00:30:56;1.20;;;0.60;;
22129;SDS011;11231;50.746;4.272;2024-03-02T00:33:22;1.57;;;0.50;;
22129;SDS011;11231;50.746;4.272;2024-03-02T00:35:49;2.50;;;0.70;;
22129;SDS011;11231;50.746;4.272;2024-03-02T00:38:15;1.43;;;0.73;;
22129;SDS011;11231;50.746;4.272;2024-03-02T00:40:41;2.17;;;0.80;;
22129;SDS011;11231;50.746;4.272;2024-03-02T00:45:49;3.87;;;0.80;;
22129;SDS011;11231;50.746;4.272;2024-03-02T00:48:15;0.80;;;0.60;;
22129;SDS011;11231;50.746;4.272;2024-03-02T00:50:41;2.20;;;0.70;;
22129;SDS011;11231;50.746;4.272;2024-03-02T00:53:09;1.50;;;0.70;;
22129;SDS011;11231;50.746;4.272;2024-03-02T00:55:37;0.73;;;0.40;;
22129;SDS011;11231;50.746;4.272;2024-03-02T00:58:03;2.37;;;0.70;;
22129;SDS011;11231;50.746;4.272;2024-03-02T01:00:29;3.33;;;0.70;;
22129;SDS011;11231;50.746;4.272;2024-03-02T01:02:54;1.77;;;0.57;;
22129;SDS011;11231;50.746;4.272;2024-03-02T01:05:20;2.00;;;0.60;;
22129;SDS011;11231;50.746;4.272;2024-03-02T01:07:46;3.07;;;0.53;;
22129;SDS011;11231;50.746;4.272;2024-03-02T01:10:12;1.63;;;0.60;;
22129;SDS011;11231;50.746;4.272;2024-03-02T01:12:37;1.03;;;0.40;;
22129;SDS011;11231;50.746;4.272;2024-03-02T01:15:04;2.20;;;0.57;;
22129;SDS011;11231;50.746;4.272;2024-03-02T01:17:33;2.40;;;0.60;;
22129;SDS011;11231;50.746;4.272;2024-03-02T01:19:58;1.10;;;0.57;;
22129;SDS011;11231;50.746;4.272;2024-03-02T01:22:24;1.37;;;0.50;;
22129;SDS011;11231;50.746;4.272;2024-03-02T01:24:51;1.70;;;0.50;;
22129;SDS011;11231;50.746;4.272;2024-03-02T01:27:16;1.57;;;0.50;;
22129;SDS011;11231;50.746;4.272;2024-03-02T01:29:42;2.30;;;0.50;;
22129;SDS011;11231;50.746;4.272;2024-03-02T01:32:08;2.47;;;0.57;;
22129;SDS011;11231;50.746;4.272;2024-03-02T01:34:34;1.77;;;0.70;;
22129;SDS011;11231;50.746;4.272;2024-03-02T01:36:59;1.10;;;0.50;;
22129;SDS011;11231;50.746;4.272;2024-03-02T01:39:25;2.20;;;0.50;;
22129;SDS011;11231;50.746;4.272;2024-03-02T01:41:51;4.27;;;0.70;;
22129;SDS011;11231;50.746;4.272;2024-03-02T01:44:16;3.83;;;0.70;;
22129;SDS011;11231;50.746;4.272;2024-03-02T01:46:42;2.57;;;0.70;;
22129;SDS011;11231;50.746;4.272;2024-03-02T01:49:08;1.07;;;0.40;;
22129;SDS011;11231;50.746;4.272;2024-03-02T01:51:34;4.03;;;0.80;;
22129;SDS011;11231;50.746;4.272;2024-03-02T01:54:00;1.53;;;0.53;;
22129;SDS011;11231;50.746;4.272;2024-03-02T01:56:25;3.27;;;0.73;;
22129;SDS011;11231;50.746;4.272;2024-03-02T01:58:51;2.80;;;0.50;;
22129;SDS011;11231;50.746;4.272;2024-03-02T02:01:17;2.43;;;0.67;;
22129;SDS011;11231;50.746;4.272;2024-03-02T02:03:43;4.47;;;0.60;;
22129;SDS011;11231;50.746;4.272;2024-03-02T02:06:09;0.77;;;0.40;;
22129;SDS011;11231;50.746;4.272;2024-03-02T02:08:36;2.80;;;0.60;;
22129;SDS011;11231;50.746;4.272;2024-03-02T02:11:03;2.70;;;1.03;;
22129;SDS011;11231;50.746;4.272;2024-03-02T02:13:28;4.73;;;0.70;;
22129;SDS011;11231;50.746;4.272;2024-03-02T02:15:54;1.00;;;0.40;;
22129;SDS011;11231;50.746;4.272;2024-03-02T02:18:20;1.77;;;0.67;;
22129;SDS011;11231;50.746;4.272;2024-03-02T02:20:45;2.43;;;0.60;;
22129;SDS011;11231;50.746;4.272;2024-03-02T02:23:11;2.20;;;0.50;;
22129;SDS011;11231;50.746;4.272;2024-03-02T02:25:38;2.20;;;0.60;;
22129;SDS011;11231;50.746;4.272;2024-03-02T02:28:04;2.83;;;0.73;;
22129;SDS011;11231;50.746;4.272;2024-03-02T02:30:30;3.33;;;0.90;;
22129;SDS011;11231;50.746;4.272;2024-03-02T02:32:57;2.53;;;0.90;;
22129;SDS011;11231;50.746;4.272;2024-03-02T02:35:23;3.00;;;1.10;;
22129;SDS011;11231;50.746;4.272;2024-03-02T02:37:49;2.57;;;0.80;;
22129;SDS011;11231;50.746;4.272;2024-03-02T02:40:17;4.57;;;1.00;;
22129;SDS011;11231;50.746;4.272;2024-03-02T02:42:44;2.00;;;1.00;;
22129;SDS011;11231;50.746;4.272;2024-03-02T02:45:10;4.63;;;1.07;;
22129;SDS011;11231;50.746;4.272;2024-03-02T02:47:38;4.17;;;1.10;;
22129;SDS011;11231;50.746;4.272;2024-03-02T02:50:04;1.83;;;0.70;;
22129;SDS011;11231;50.746;4.272;2024-03-02T02:52:35;4.60;;;0.93;;
22129;SDS011;11231;50.746;4.272;2024-03-02T02:55:05;3.13;;;0.80;;
22129;SDS011;11231;50.746;4.272;2024-03-02T02:57:32;0.93;;;0.50;;
22129;SDS011;11231;50.746;4.272;2024-03-02T03:00:03;6.17;;;0.87;;
22129;SDS011;11231;50.746;4.272;2024-03-02T03:02:35;4.13;;;0.87;;
22129;SDS011;11231;50.746;4.272;2024-03-02T03:05:02;3.30;;;0.60;;
22129;SDS011;11231;50.746;4.272;2024-03-02T03:07:28;5.57;;;0.90;;
22129;SDS011;11231;50.746;4.272;2024-03-02T03:09:54;2.93;;;0.80;;
22129;SDS011;11231;50.746;4.272;2024-03-02T03:12:20;4.17;;;0.60;;
22129;SDS011;11231;50.746;4.272;2024-03-02T03:14:46;5.40;;;1.00;;
22129;SDS011;11231;50.746;4.272;2024-03-02T03:17:11;5.60;;;0.70;;
22129;SDS011;11231;50.746;4.272;2024-03-02T03:19:38;4.47;;;1.00;;
22129;SDS011;11231;50.746;4.272;2024-03-02T03:22:03;4.63;;;0.73;;
22129;SDS011;11231;50.746;4.272;2024-03-02T03:24:29;4.73;;;0.87;;
22129;SDS011;11231;50.746;4.272;2024-03-02T03:26:55;3.80;;;0.83;;
22129;SDS011;11231;50.746;4.272;2024-03-02T03:29:21;5.50;;;0.80;;
22129;SDS011;11231;50.746;4.272;2024-03-02T03:31:46;2.57;;;0.80;;
22129;SDS011;11231;50.746;4.272;2024-03-02T03:34:12;3.63;;;0.90;;
22129;SDS011;11231;50.746;4.272;2024-03-02T03:36:41;3.20;;;0.80;;
22129;SDS011;11231;50.746;4.272;2024-03-02T03:39:07;2.90;;;0.90;;
22129;SDS011;11231;50.746;4.272;2024-03-02T03:41:33;3.60;;;0.90;;
22129;SDS011;11231;50.746;4.272;2024-03-02T03:43:58;5.10;;;0.80;;
22129;SDS011;11231;50.746;4.272;2024-03-02T03:46:24;1.70;;;0.70;;
22129;SDS011;11231;50.746;4.272;2024-03-02T03:48:49;2.53;;;0.80;;
22129;SDS011;11231;50.746;4.272;2024-03-02T03:51:15;3.10;;;0.70;;
22129;SDS011;11231;50.746;4.272;2024-03-02T03:53:41;3.50;;;0.70;;
22129;SDS011;11231;50.746;4.272;2024-03-02T03:56:07;3.70;;;0.80;;
22129;SDS011;11231;50.746;4.272;2024-03-02T03:58:32;4.13;;;0.90;;
22129;SDS011;11231;50.746;4.272;2024-03-02T04:00:58;2.20;;;0.80;;
22129;SDS011;11231;50.746;4.272;2024-03-02T04:03:24;3.93;;;0.97;;
22129;SDS011;11231;50.746;4.272;2024-03-02T04:05:50;3.53;;;0.87;;
22129;SDS011;11231;50.746;4.272;2024-03-02T04:08:16;2.60;;;0.60;;
22129;SDS011;11231;50.746;4.272;2024-03-02T04:10:42;6.90;;;0.97;;
22129;SDS011;11231;50.746;4.272;2024-03-02T04:13:07;5.40;;;0.90;;
22129;SDS011;11231;50.746;4.272;2024-03-02T04:15:33;4.63;;;0.80;;
22129;SDS011;11231;50.746;4.272;2024-03-02T04:17:59;4.97;;;0.77;;
22129;SDS011;11231;50.746;4.272;2024-03-02T04:20:25;3.77;;;0.97;;
22129;SDS011;11231;50.746;4.272;2024-03-02T04:22:50;3.10;;;0.90;;
22129;SDS011;11231;50.746;4.272;2024-03-02T04:25:16;5.97;;;0.70;;
22129;SDS011;11231;50.746;4.272;2024-03-02T04:27:42;5.07;;;1.03;;
22129;SDS011;11231;50.746;4.272;2024-03-02T04:30:07;5.33;;;0.80;;
22129;SDS011;11231;50.746;4.272;2024-03-02T04:32:33;3.37;;;0.70;;
22129;SDS011;11231;50.746;4.272;2024-03-02T04:35:01;3.43;;;0.77;;
22129;SDS011;11231;50.746;4.272;2024-03-02T04:37:27;3.70;;;0.80;;
22129;SDS011;11231;50.746;4.272;2024-03-02T04:39:52;3.70;;;0.70;;
22129;SDS011;11231;50.746;4.272;2024-03-02T04:42:19;3.60;;;0.60;;
22129;SDS011;11231;50.746;4.272;2024-03-02T04:44:44;5.18;;;1.10;;
22129;SDS011;11231;50.746;4.272;2024-03-02T04:47:10;4.87;;;0.90;;
22129;SDS011;11231;50.746;4.272;2024-03-02T04:49:36;4.53;;;0.80;;
22129;SDS011;11231;50.746;4.272;2024-03-02T04:52:01;3.67;;;0.97;;
22129;SDS011;11231;50.746;4.272;2024-03-02T04:54:27;7.37;;;0.97;;
22129;SDS011;11231;50.746;4.272;2024-03-02T04:56:53;2.83;;;0.60;;
22129;SDS011;11231;50.746;4.272;2024-03-02T04:59:19;4.47;;;0.80;;
22129;SDS011;11231;50.746;4.272;2024-03-02T05:01:45;6.10;;;1.00;;
22129;SDS011;11231;50.746;4.272;2024-03-02T05:04:12;7.37;;;1.00;;
22129;SDS011;11231;50.746;4.272;2024-03-02T05:06:38;9.27;;;1.00;;
22129;SDS011;11231;50.746;4.272;2024-03-02T05:09:08;3.50;;;0.70;;
22129;SDS011;11231;50.746;4.272;2024-03-02T05:11:33;6.60;;;1.00;;
22129;SDS011;11231;50.746;4.272;2024-03-02T05:14:05;4.57;;;0.90;;
22129;SDS011;11231;50.746;4.272;2024-03-02T05:16:37;5.13;;;0.90;;
22129;SDS011;11231;50.746;4.272;2024-03-02T05:19:06;5.00;;;1.00;;
22129;SDS011;11231;50.746;4.272;2024-03-02T05:21:33;5.73;;;0.80;;
22129;SDS011;11231;50.746;4.272;2024-03-02T05:23:59;4.43;;;0.90;;
22129;SDS011;11231;50.746;4.272;2024-03-02T05:26:25;4.17;;;0.77;;
22129;SDS011;11231;50.746;4.272;2024-03-02T05:28:51;9.63;;;1.27;;
22129;SDS011;11231;50.746;4.272;2024-03-02T05:31:17;5.77;;;0.83;;
22129;SDS011;11231;50.746;4.272;2024-03-02T05:33:43;7.87;;;0.90;;
22129;SDS011;11231;50.746;4.272;2024-03-02T05:36:09;4.77;;;1.00;;
22129;SDS011;11231;50.746;4.272;2024-03-02T05:38:35;8.87;;;1.00;;
22129;SDS011;11231;50.746;4.272;2024-03-02T05:41:01;4.83;;;0.90;;
22129;SDS011;11231;50.746;4.272;2024-03-02T05:43:27;5.57;;;1.00;;
22129;SDS011;11231;50.746;4.272;2024-03-02T05:45:52;6.03;;;1.07;;
22129;SDS011;11231;50.746;4.272;2024-03-02T05:48:18;5.60;;;1.10;;
22129;SDS011;11231;50.746;4.272;2024-03-02T05:50:44;5.43;;;1.47;;
22129;SDS011;11231;50.746;4.272;2024-03-02T05:53:09;4.20;;;0.77;;
22129;SDS011;11231;50.746;4.272;2024-03-02T05:55:35;5.10;;;1.07;;
22129;SDS011;11231;50.746;4.272;2024-03-02T05:58:01;5.53;;;1.00;;
22129;SDS011;11231;50.746;4.272;2024-03-02T06:00:45;5.37;;;1.20;;
22129;SDS011;11231;50.746;4.272;2024-03-02T06:03:11;4.37;;;1.10;;
22129;SDS011;11231;50.746;4.272;2024-03-02T06:05:37;4.00;;;1.10;;
22129;SDS011;11231;50.746;4.272;2024-03-02T06:08:03;7.80;;;1.30;;
22129;SDS011;11231;50.746;4.272;2024-03-02T06:10:29;6.50;;;1.03;;
22129;SDS011;11231;50.746;4.272;2024-03-02T06:12:54;8.10;;;1.40;;
22129;SDS011;11231;50.746;4.272;2024-03-02T06:15:20;6.33;;;1.53;;
22129;SDS011;11231;50.746;4.272;2024-03-02T06:17:46;3.97;;;1.17;;
22129;SDS011;11231;50.746;4.272;2024-03-02T06:20:11;7.63;;;1.00;;
22129;SDS011;11231;50.746;4.272;2024-03-02T06:22:37;6.43;;;1.03;;
22129;SDS011;11231;50.746;4.272;2024-03-02T06:25:03;6.90;;;1.03;;
22129;SDS011;11231;50.746;4.272;2024-03-02T06:27:29;8.07;;;1.20;;
22129;SDS011;11231;50.746;4.272;2024-03-02T06:29:55;4.50;;;1.13;;
22129;SDS011;11231;50.746;4.272;2024-03-02T06:32:20;5.30;;;1.10;;
22129;SDS011;11231;50.746;4.272;2024-03-02T06:34:48;8.57;;;1.10;;
22129;SDS011;11231;50.746;4.272;2024-03-02T06:37:13;5.23;;;1.07;;
22129;SDS011;11231;50.746;4.272;2024-03-02T06:39:41;7.73;;;1.10;;
22129;SDS011;11231;50.746;4.272;2024-03-02T06:42:06;8.23;;;1.20;;
22129;SDS011;11231;50.746;4.272;2024-03-02T06:44:32;5.97;;;1.10;;
22129;SDS011;11231;50.746;4.272;2024-03-02T06:46:59;6.13;;;0.93;;
22129;SDS011;11231;50.746;4.272;2024-03-02T06:49:24;5.67;;;1.33;;
22129;SDS011;11231;50.746;4.272;2024-03-02T06:51:50;4.87;;;1.40;;
22129;SDS011;11231;50.746;4.272;2024-03-02T06:54:16;5.93;;;1.10;;
22129;SDS011;11231;50.746;4.272;2024-03-02T06:56:42;6.93;;;1.20;;
22129;SDS011;11231;50.746;4.272;2024-03-02T06:59:07;9.33;;;1.30;;
22129;SDS011;11231;50.746;4.272;2024-03-02T07:01:33;7.17;;;1.40;;
22129;SDS011;11231;50.746;4.272;2024-03-02T07:03:59;13.40;;;1.60;;
22129;SDS011;11231;50.746;4.272;2024-03-02T07:06:25;10.07;;;2.03;;
22129;SDS011;11231;50.746;4.272;2024-03-02T07:08:50;6.53;;;1.30;;
22129;SDS011;11231;50.746;4.272;2024-03-02T07:11:16;8.20;;;1.30;;
22129;SDS011;11231;50.746;4.272;2024-03-02T07:13:42;8.77;;;2.10;;
22129;SDS011;11231;50.746;4.272;2024-03-02T07:16:08;4.93;;;1.13;;
22129;SDS011;11231;50.746;4.272;2024-03-02T07:18:52;7.90;;;1.50;;
22129;SDS011;11231;50.746;4.272;2024-03-02T07:21:18;8.47;;;1.50;;
22129;SDS011;11231;50.746;4.272;2024-03-02T07:23:44;7.53;;;1.40;;
22129;SDS011;11231;50.746;4.272;2024-03-02T07:26:09;8.83;;;2.00;;
22129;SDS011;11231;50.746;4.272;2024-03-02T07:28:35;7.07;;;1.10;;
22129;SDS011;11231;50.746;4.272;2024-03-02T07:31:01;11.13;;;1.33;;
22129;SDS011;11231;50.746;4.272;2024-03-02T07:33:29;7.53;;;1.30;;
22129;SDS011;11231;50.746;4.272;2024-03-02T07:35:55;8.30;;;1.50;;
22129;SDS011;11231;50.746;4.272;2024-03-02T07:38:22;7.73;;;1.30;;
22129;SDS011;11231;50.746;4.272;2024-03-02T07:40:48;10.43;;;1.80;;
22129;SDS011;11231;50.746;4.272;2024-03-02T07:43:19;9.33;;;1.60;;
22129;SDS011;11231;50.746;4.272;2024-03-02T07:45:45;9.23;;;1.30;;
22129;SDS011;11231;50.746;4.272;2024-03-02T07:48:12;8.93;;;1.67;;
22129;SDS011;11231;50.746;4.272;2024-03-02T07:50:37;11.13;;;1.90;;
22129;SDS011;11231;50.746;4.272;2024-03-02T07:53:04;7.33;;;1.50;;
22129;SDS011;11231;50.746;4.272;2024-03-02T07:55:31;10.20;;;1.80;;
22129;SDS011;11231;50.746;4.272;2024-03-02T07:57:57;8.50;;;1.40;;
22129;SDS011;11231;50.746;4.272;2024-03-02T08:00:23;9.37;;;1.53;;
22129;SDS011;11231;50.746;4.272;2024-03-02T08:02:49;10.83;;;1.40;;
22129;SDS011;11231;50.746;4.272;2024-03-02T08:05:18;6.23;;;1.43;;
22129;SDS011;11231;50.746;4.272;2024-03-02T08:07:45;9.03;;;1.50;;
22129;SDS011;11231;50.746;4.272;2024-03-02T08:10:11;10.93;;;1.60;;
22129;SDS011;11231;50.746;4.272;2024-03-02T08:12:37;8.60;;;1.60;;
22129;SDS011;11231;50.746;4.272;2024-03-02T08:15:04;8.13;;;1.60;;
22129;SDS011;11231;50.746;4.272;2024-03-02T08:17:30;12.33;;;1.80;;
22129;SDS011;11231;50.746;4.272;2024-03-02T08:19:56;7.67;;;1.50;;
22129;SDS011;11231;50.746;4.272;2024-03-02T08:22:23;6.33;;;1.40;;
22129;SDS011;11231;50.746;4.272;2024-03-02T08:24:50;6.83;;;1.40;;
22129;SDS011;11231;50.746;4.272;2024-03-02T08:27:16;10.43;;;1.57;;
22129;SDS011;11231;50.746;4.272;2024-03-02T08:29:42;7.63;;;1.40;;
22129;SDS011;11231;50.746;4.272;2024-03-02T08:32:08;7.50;;;1.60;;
22129;SDS011;11231;50.746;4.272;2024-03-02T08:34:34;7.83;;;1.30;;
22129;SDS011;11231;50.746;4.272;2024-03-02T08:37:03;7.00;;;1.50;;
22129;SDS011;11231;50.746;4.272;2024-03-02T08:39:29;13.67;;;1.67;;
22129;SDS011;11231;50.746;4.272;2024-03-02T08:41:54;8.50;;;1.90;;
22129;SDS011;11231;50.746;4.272;2024-03-02T08:44:20;9.20;;;1.63;;
22129;SDS011;11231;50.746;4.272;2024-03-02T08:46:46;7.33;;;1.57;;
22129;SDS011;11231;50.746;4.272;2024-03-02T08:49:12;8.00;;;1.53;;
22129;SDS011;11231;50.746;4.272;2024-03-02T08:51:38;9.50;;;1.80;;
22129;SDS011;11231;50.746;4.272;2024-03-02T08:54:04;10.00;;;1.50;;
22129;SDS011;11231;50.746;4.272;2024-03-02T08:56:30;9.50;;;1.47;;
22129;SDS011;11231;50.746;4.272;2024-03-02T08:58:56;7.50;;;1.87;;
22129;SDS011;11231;50.746;4.272;2024-03-02T09:01:23;8.97;;;1.60;;
22129;SDS011;11231;50.746;4.272;2024-03-02T09:03:48;9.63;;;1.63;;
22129;SDS011;11231;50.746;4.272;2024-03-02T09:06:14;7.77;;;1.40;;
22129;SDS011;11231;50.746;4.272;2024-03-02T09:08:45;9.07;;;1.40;;
22129;SDS011;11231;50.746;4.272;2024-03-02T09:11:11;7.13;;;1.33;;
22129;SDS011;11231;50.746;4.272;2024-03-02T09:13:37;7.93;;;1.50;;
22129;SDS011;11231;50.746;4.272;2024-03-02T09:16:03;8.03;;;1.63;;
22129;SDS011;11231;50.746;4.272;2024-03-02T09:18:30;10.70;;;1.60;;
22129;SDS011;11231;50.746;4.272;2024-03-02T09:20:56;8.10;;;1.40;;
22129;SDS011;11231;50.746;4.272;2024-03-02T09:23:22;7.30;;;1.17;;
22129;SDS011;11231;50.746;4.272;2024-03-02T09:25:48;13.03;;;2.03;;
22129;SDS011;11231;50.746;4.272;2024-03-02T09:28:17;9.50;;;1.90;;
22129;SDS011;11231;50.746;4.272;2024-03-02T09:30:42;11.30;;;1.40;;
22129;SDS011;11231;50.746;4.272;2024-03-02T09:33:08;13.30;;;1.63;;
22129;SDS011;11231;50.746;4.272;2024-03-02T09:35:34;9.47;;;1.50;;
22129;SDS011;11231;50.746;4.272;2024-03-02T09:37:59;12.43;;;1.50;;
22129;SDS011;11231;50.746;4.272;2024-03-02T09:40:25;10.33;;;1.40;;
22129;SDS011;11231;50.746;4.272;2024-03-02T09:42:51;9.97;;;1.40;;
22129;SDS011;11231;50.746;4.272;2024-03-02T09:45:22;6.63;;;1.27;;
22129;SDS011;11231;50.746;4.272;2024-03-02T09:47:49;6.10;;;1.10;;
22129;SDS011;11231;50.746;4.272;2024-03-02T09:50:15;7.53;;;1.43;;
22129;SDS011;11231;50.746;4.272;2024-03-02T09:52:47;10.30;;;1.53;;
22129;SDS011;11231;50.746;4.272;2024-03-02T09:55:14;6.97;;;1.23;;
22129;SDS011;11231;50.746;4.272;2024-03-02T09:57:42;6.63;;;1.03;;
22129;SDS011;11231;50.746;4.272;2024-03-02T10:00:08;7.30;;;1.00;;
22129;SDS011;11231;50.746;4.272;2024-03-02T10:02:39;5.50;;;0.93;;
22129;SDS011;11231;50.746;4.272;2024-03-02T10:05:06;11.10;;;1.50;;
22129;SDS011;11231;50.746;4.272;2024-03-02T10:07:33;8.90;;;1.30;;
22129;SDS011;11231;50.746;4.272;2024-03-02T10:10:00;10.10;;;1.50;;
22129;SDS011;11231;50.746;4.272;2024-03-02T10:12:41;10.50;;;1.30;;
22129;SDS011;11231;50.746;4.272;2024-03-02T10:15:07;8.63;;;1.13;;
22129;SDS011;11231;50.746;4.272;2024-03-02T10:17:34;9.23;;;1.17;;
22129;SDS011;11231;50.746;4.272;2024-03-02T10:20:04;7.83;;;1.10;;
22129;SDS011;11231;50.746;4.272;2024-03-02T10:22:54;7.80;;;1.60;;
22129;SDS011;11231;50.746;4.272;2024-03-02T10:25:34;6.50;;;1.10;;
22129;SDS011;11231;50.746;4.272;2024-03-02T10:28:00;9.93;;;1.63;;
22129;SDS011;11231;50.746;4.272;2024-03-02T10:30:27;6.63;;;1.03;;
22129;SDS011;11231;50.746;4.272;2024-03-02T10:32:55;11.53;;;1.60;;
22129;SDS011;11231;50.746;4.272;2024-03-02T10:35:22;8.40;;;1.20;;
22129;SDS011;11231;50.746;4.272;2024-03-02T10:37:49;8.07;;;1.10;;
22129;SDS011;11231;50.746;4.272;2024-03-02T10:40:15;12.33;;;1.57;;
22129;SDS011;11231;50.746;4.272;2024-03-02T10:42:41;8.13;;;1.40;;
22129;SDS011;11231;50.746;4.272;2024-03-02T10:45:09;11.17;;;1.33;;
22129;SDS011;11231;50.746;4.272;2024-03-02T10:47:38;7.97;;;1.40;;
22129;SDS011;11231;50.746;4.272;2024-03-02T10:50:04;7.33;;;1.23;;
22129;SDS011;11231;50.746;4.272;2024-03-02T10:52:36;11.90;;;1.47;;
22129;SDS011;11231;50.746;4.272;2024-03-02T10:55:04;11.47;;;2.00;;
22129;SDS011;11231;50.746;4.272;2024-03-02T11:00:17;7.57;;;1.57;;
22129;SDS011;11231;50.746;4.272;2024-03-02T11:02:50;13.57;;;1.53;;
22129;SDS011;11231;50.746;4.272;2024-03-02T11:05:27;10.10;;;1.60;;
22129;SDS011;11231;50.746;4.272;2024-03-02T11:08:04;9.73;;;1.50;;
22129;SDS011;11231;50.746;4.272;2024-03-02T11:10:57;10.53;;;1.60;;
22129;SDS011;11231;50.746;4.272;2024-03-02T11:13:31;9.50;;;1.30;;
22129;SDS011;11231;50.746;4.272;2024-03-02T11:16:04;9.47;;;1.33;;
22129;SDS011;11231;50.746;4.272;2024-03-02T11:18:35;10.57;;;1.33;;
22129;SDS011;11231;50.746;4.272;2024-03-02T11:21:01;10.03;;;1.20;;
22129;SDS011;11231;50.746;4.272;2024-03-02T11:23:31;13.60;;;1.60;;
22129;SDS011;11231;50.746;4.272;2024-03-02T11:28:44;8.20;;;1.37;;
22129;SDS011;11231;50.746;4.272;2024-03-02T11:31:10;7.23;;;1.53;;
22129;SDS011;11231;50.746;4.272;2024-03-02T11:33:36;9.17;;;1.77;;
22129;SDS011;11231;50.746;4.272;2024-03-02T11:36:02;10.37;;;1.50;;
22129;SDS011;11231;50.746;4.272;2024-03-02T11:38:29;8.00;;;1.20;;
22129;SDS011;11231;50.746;4.272;2024-03-02T11:40:57;7.87;;;1.30;;
22129;SDS011;11231;50.746;4.272;2024-03-02T11:43:25;7.17;;;1.30;;
22129;SDS011;11231;50.746;4.272;2024-03-02T11:46:10;8.33;;;1.50;;
22129;SDS011;11231;50.746;4.272;2024-03-02T11:48:38;9.33;;;1.50;;
22129;SDS011;11231;50.746;4.272;2024-03-02T11:51:04;9.97;;;1.40;;
22129;SDS011;11231;50.746;4.272;2024-03-02T11:53:30;6.63;;;1.20;;
22129;SDS011;11231;50.746;4.272;2024-03-02T11:55:58;8.10;;;1.07;;
22129;SDS011;11231;50.746;4.272;2024-03-02T11:58:24;7.37;;;1.00;;
22129;SDS011;11231;50.746;4.272;2024-03-02T12:00:51;7.87;;;1.13;;
22129;SDS011;11231;50.746;4.272;2024-03-02T12:03:20;5.17;;;0.90;;
22129;SDS011;11231;50.746;4.272;2024-03-02T12:05:51;7.60;;;1.30;;
22129;SDS011;11231;50.746;4.272;2024-03-02T12:08:20;5.20;;;0.90;;
22129;SDS011;11231;50.746;4.272;2024-03-02T12:10:56;10.67;;;1.23;;
22129;SDS011;11231;50.746;4.272;2024-03-02T12:13:26;7.60;;;0.80;;
22129;SDS011;11231;50.746;4.272;2024-03-02T12:15:54;6.43;;;1.00;;
22129;SDS011;11231;50.746;4.272;2024-03-02T12:18:23;7.60;;;1.10;;
22129;SDS011;11231;50.746;4.272;2024-03-02T12:20:50;7.13;;;1.00;;
22129;SDS011;11231;50.746;4.272;2024-03-02T12:23:27;6.00;;;1.00;;
22129;SDS011;11231;50.746;4.272;2024-03-02T12:25:53;4.40;;;1.10;;
22129;SDS011;11231;50.746;4.272;2024-03-02T12:28:19;5.60;;;0.90;;
22129;SDS011;11231;50.746;4.272;2024-03-02T12:30:45;5.60;;;0.90;;
22129;SDS011;11231;50.746;4.272;2024-03-02T12:33:12;6.93;;;0.87;;
22129;SDS011;11231;50.746;4.272;2024-03-02T12:35:38;5.23;;;0.70;;
22129;SDS011;11231;50.746;4.272;2024-03-02T12:38:05;3.70;;;0.77;;
22129;SDS011;11231;50.746;4.272;2024-03-02T12:40:31;4.70;;;0.77;;
22129;SDS011;11231;50.746;4.272;2024-03-02T12:42:57;5.53;;;1.40;;
22129;SDS011;11231;50.746;4.272;2024-03-02T12:45:22;6.60;;;1.03;;
22129;SDS011;11231;50.746;4.272;2024-03-02T12:47:51;5.13;;;0.77;;
22129;SDS011;11231;50.746;4.272;2024-03-02T12:50:17;3.83;;;0.80;;
22129;SDS011;11231;50.746;4.272;2024-03-02T12:52:44;7.33;;;0.90;;
22129;SDS011;11231;50.746;4.272;2024-03-02T12:55:17;3.97;;;0.93;;
22129;SDS011;11231;50.746;4.272;2024-03-02T12:57:42;5.43;;;1.30;;
22129;SDS011;11231;50.746;4.272;2024-03-02T13:00:09;4.60;;;1.10;;
22129;SDS011;11231;50.746;4.272;2024-03-02T13:02:36;5.17;;;0.80;;
22129;SDS011;11231;50.746;4.272;2024-03-02T13:05:06;7.03;;;0.90;;
22129;SDS011;11231;50.746;4.272;2024-03-02T13:07:36;2.97;;;0.77;;
22129;SDS011;11231;50.746;4.272;2024-03-02T13:10:02;4.30;;;0.73;;
22129;SDS011;11231;50.746;4.272;2024-03-02T13:12:29;5.37;;;0.90;;
22129;SDS011;11231;50.746;4.272;2024-03-02T13:14:57;4.60;;;0.80;;
22129;SDS011;11231;50.746;4.272;2024-03-02T13:17:24;4.03;;;1.30;;
22129;SDS011;11231;50.746;4.272;2024-03-02T13:19:53;5.23;;;0.90;;
22129;SDS011;11231;50.746;4.272;2024-03-02T13:22:22;6.40;;;1.00;;
22129;SDS011;11231;50.746;4.272;2024-03-02T13:24:49;4.60;;;0.90;;
22129;SDS011;11231;50.746;4.272;2024-03-02T13:27:15;5.13;;;0.93;;
22129;SDS011;11231;50.746;4.272;2024-03-02T13:29:44;4.23;;;0.70;;
22129;SDS011;11231;50.746;4.272;2024-03-02T13:32:11;6.30;;;0.93;;
22129;SDS011;11231;50.746;4.272;2024-03-02T13:34:37;5.50;;;1.13;;
22129;SDS011;11231;50.746;4.272;2024-03-02T13:37:03;5.70;;;1.00;;
22129;SDS011;11231;50.746;4.272;2024-03-02T13:39:31;3.83;;;0.80;;
22129;SDS011;11231;50.746;4.272;2024-03-02T13:41:58;4.93;;;0.93;;
22129;SDS011;11231;50.746;4.272;2024-03-02T13:44:30;4.70;;;1.00;;
22129;SDS011;11231;50.746;4.272;2024-03-02T13:46:56;3.03;;;0.73;;
22129;SDS011;11231;50.746;4.272;2024-03-02T13:49:23;3.23;;;0.70;;
22129;SDS011;11231;50.746;4.272;2024-03-02T13:51:49;3.67;;;0.97;;
22129;SDS011;11231;50.746;4.272;2024-03-02T13:54:15;5.13;;;1.17;;
22129;SDS011;11231;50.746;4.272;2024-03-02T13:56:41;4.93;;;1.10;;
22129;SDS011;11231;50.746;4.272;2024-03-02T13:59:07;4.07;;;0.90;;
22129;SDS011;11231;50.746;4.272;2024-03-02T14:01:33;5.23;;;1.10;;
22129;SDS011;11231;50.746;4.272;2024-03-02T14:03:59;3.73;;;0.90;;
22129;SDS011;11231;50.746;4.272;2024-03-02T14:06:25;5.33;;;1.13;;
22129;SDS011;11231;50.746;4.272;2024-03-02T14:08:52;4.73;;;0.90;;
22129;SDS011;11231;50.746;4.272;2024-03-02T14:11:18;3.90;;;0.90;;
22129;SDS011;11231;50.746;4.272;2024-03-02T14:13:44;4.10;;;0.80;;
22129;SDS011;11231;50.746;4.272;2024-03-02T14:16:14;7.43;;;1.87;;
22129;SDS011;11231;50.746;4.272;2024-03-02T14:18:41;6.00;;;1.00;;
22129;SDS011;11231;50.746;4.272;2024-03-02T14:21:07;4.27;;;0.70;;
22129;SDS011;11231;50.746;4.272;2024-03-02T14:23:33;3.53;;;0.90;;
22129;SDS011;11231;50.746;4.272;2024-03-02T14:25:59;4.27;;;1.03;;
22129;SDS011;11231;50.746;4.272;2024-03-02T14:28:25;4.47;;;1.00;;
22129;SDS011;11231;50.746;4.272;2024-03-02T14:30:51;6.13;;;1.00;;
22129;SDS011;11231;50.746;4.272;2024-03-02T14:33:16;5.57;;;1.00;;
22129;SDS011;11231;50.746;4.272;2024-03-02T14:35:44;7.73;;;1.20;;
22129;SDS011;11231;50.746;4.272;2024-03-02T14:38:10;7.53;;;1.27;;
22129;SDS011;11231;50.746;4.272;2024-03-02T14:40:37;5.00;;;1.20;;
22129;SDS011;11231;50.746;4.272;2024-03-02T14:43:03;5.93;;;1.10;;
22129;SDS011;11231;50.746;4.272;2024-03-02T14:45:29;5.60;;;1.17;;
22129;SDS011;11231;50.746;4.272;2024-03-02T14:47:55;3.83;;;0.97;;
22129;SDS011;11231;50.746;4.272;2024-03-02T14:50:25;5.07;;;1.20;;
22129;SDS011;11231;50.746;4.272;2024-03-02T14:52:51;4.70;;;1.07;;
22129;SDS011;11231;50.746;4.272;2024-03-02T14:55:17;4.70;;;0.97;;
22129;SDS011;11231;50.746;4.272;2024-03-02T14:57:43;6.07;;;0.97;;